Time;durP1;ratioP1;P1;durP2;ratioP2;P2;SDS_P1;SDS_P2;PMS_P1;PMS_P2;Temp;Humidity;BMP_temperature;BMP_pressure;BME280_temperature;BME280_humidity;BME280_pressure;Samples;Min_cycle;Max_cycle;Signal;HPM_P1;HPM_P2
2021/09/07 00:00:31;;;;;;;18.05;13.52;;;15.20;99.90;;;;;;4941176;29;20034;-73
2021/09/07 00:02:57;;;;;;;17.88;14.10;;;15.30;99.90;;;;;;4945985;29;20027;-71
2021/09/07 00:05:22;;;;;;;19.90;13.77;;;15.30;99.90;;;;;;4941775;29;20559;-70
2021/09/07 00:07:48;;;;;;;19.70;13.63;;;15.40;99.90;;;;;;4945556;29;20031;-74
2021/09/07 00:10:14;;;;;;;18.15;13.98;;;15.50;99.90;;;;;;4932985;29;20035;-70
2021/09/07 00:12:41;;;;;;;20.42;14.18;;;15.50;99.90;;;;;;4942671;29;20023;-70
2021/09/07 00:15:11;;;;;;;16.27;13.23;;;15.60;99.90;;;;;;4953852;28;20108;-70
2021/09/07 00:17:37;;;;;;;16.20;12.23;;;15.70;99.90;;;;;;4953452;28;20034;-70
2021/09/07 00:20:05;;;;;;;15.82;12.35;;;15.70;99.90;;;;;;4953520;28;20054;-70
2021/09/07 00:22:30;;;;;;;15.55;12.68;;;15.80;99.90;;;;;;4952276;29;20528;-74
2021/09/07 00:24:56;;;;;;;17.65;12.27;;;15.80;99.90;;;;;;4945774;29;20114;-70
2021/09/07 00:27:21;;;;;;;14.82;12.32;;;15.90;99.90;;;;;;4951372;29;20032;-70
2021/09/07 00:29:47;;;;;;;15.23;12.35;;;15.90;99.90;;;;;;4952132;28;20043;-70
2021/09/07 00:32:12;;;;;;;15.18;12.50;;;15.90;99.90;;;;;;4952584;29;20035;-70
2021/09/07 00:34:38;;;;;;;15.77;12.10;;;16.00;99.90;;;;;;4940701;28;20062;-70
2021/09/07 00:37:04;;;;;;;14.23;12.02;;;16.00;99.90;;;;;;4937857;28;20042;-71
2021/09/07 00:39:29;;;;;;;16.10;12.32;;;16.00;99.90;;;;;;4943827;28;20023;-69
2021/09/07 00:41:55;;;;;;;13.32;11.15;;;16.00;99.90;;;;;;4940074;28;20028;-69
2021/09/07 00:44:23;;;;;;;15.93;12.23;;;16.10;99.90;;;;;;4970446;28;20439;-73
2021/09/07 00:46:54;;;;;;;14.40;12.20;;;16.10;99.90;;;;;;4972633;28;20019;-73
2021/09/07 00:49:21;;;;;;;15.25;11.93;;;16.10;99.90;;;;;;4972763;28;20043;-71
2021/09/07 00:51:48;;;;;;;15.30;12.15;;;16.10;99.90;;;;;;4971986;28;20078;-73
2021/09/07 00:54:14;;;;;;;14.65;11.10;;;16.20;99.90;;;;;;4955229;28;20031;-69
2021/09/07 00:56:42;;;;;;;13.38;11.38;;;16.20;99.90;;;;;;4952532;29;20515;-70
2021/09/07 00:59:09;;;;;;;13.95;10.80;;;16.20;99.90;;;;;;4952409;28;20019;-69
2021/09/07 01:01:34;;;;;;;17.15;12.35;;;16.30;99.90;;;;;;4953541;28;20042;-70
2021/09/07 01:04:01;;;;;;;16.85;13.13;;;16.30;99.90;;;;;;4951995;29;20429;-71
2021/09/07 01:06:27;;;;;;;13.60;11.40;;;16.30;99.90;;;;;;4951173;29;20527;-73
2021/09/07 01:08:54;;;;;;;16.35;12.90;;;16.30;99.90;;;;;;4935166;28;20043;-68
2021/09/07 01:11:20;;;;;;;15.10;11.80;;;16.40;99.90;;;;;;4933760;29;20417;-69
2021/09/07 01:13:46;;;;;;;13.63;11.25;;;16.40;99.90;;;;;;4932981;29;20031;-69
2021/09/07 01:16:12;;;;;;;13.65;11.70;;;16.40;99.90;;;;;;4933946;29;20480;-69
2021/09/07 01:18:38;;;;;;;13.70;11.88;;;16.40;99.90;;;;;;4933289;29;20028;-72
2021/09/07 01:21:09;;;;;;;15.93;12.18;;;16.40;99.90;;;;;;4932975;29;20034;-69
2021/09/07 01:23:37;;;;;;;14.95;12.35;;;16.40;99.90;;;;;;4933196;29;20059;-68
2021/09/07 01:26:02;;;;;;;15.60;12.50;;;16.40;99.90;;;;;;4933324;29;20028;-68
2021/09/07 01:28:29;;;;;;;14.05;11.38;;;16.40;99.90;;;;;;4934204;29;20036;-68
2021/09/07 01:30:55;;;;;;;15.00;12.30;;;16.40;99.90;;;;;;4953610;29;20023;-70
2021/09/07 01:33:21;;;;;;;15.15;12.20;;;16.40;99.90;;;;;;4956139;28;20074;-69
2021/09/07 01:35:46;;;;;;;15.40;11.98;;;16.40;99.90;;;;;;4956164;28;20023;-69
2021/09/07 01:38:12;;;;;;;13.95;11.80;;;16.30;99.90;;;;;;4955666;29;20023;-69
2021/09/07 01:40:37;;;;;;;13.98;11.93;;;16.30;99.90;;;;;;4956314;28;20098;-69
2021/09/07 01:43:03;;;;;;;18.50;12.95;;;16.20;99.90;;;;;;4956284;28;20490;-69
2021/09/07 01:45:29;;;;;;;16.35;12.38;;;16.20;99.90;;;;;;4950966;28;20447;-69
2021/09/07 01:47:54;;;;;;;15.18;12.68;;;16.10;99.90;;;;;;4939011;29;20032;-68
2021/09/07 01:50:20;;;;;;;18.30;13.60;;;16.00;99.90;;;;;;4956540;28;20031;-68
2021/09/07 01:52:46;;;;;;;16.67;12.18;;;15.90;99.90;;;;;;4938456;28;20035;-70
2021/09/07 01:55:12;;;;;;;15.65;13.60;;;15.90;99.90;;;;;;4939455;28;20038;-69
2021/09/07 01:57:38;;;;;;;17.02;13.90;;;15.80;99.90;;;;;;4946808;29;20027;-68
2021/09/07 02:00:07;;;;;;;18.60;14.35;;;15.80;99.90;;;;;;4937578;29;20036;-68
2021/09/07 02:02:32;;;;;;;17.20;13.70;;;15.80;99.90;;;;;;4935435;29;20170;-71
2021/09/07 02:04:58;;;;;;;17.90;14.27;;;15.80;99.90;;;;;;4936419;29;20079;-68
2021/09/07 02:07:23;;;;;;;17.60;14.75;;;15.90;99.90;;;;;;4937157;29;20032;-68
2021/09/07 02:09:51;;;;;;;15.30;13.50;;;15.90;99.90;;;;;;4936154;29;20114;-69
2021/09/07 02:12:16;;;;;;;16.80;13.48;;;16.00;99.90;;;;;;4935657;29;20028;-68
2021/09/07 02:14:42;;;;;;;16.80;13.98;;;16.00;99.90;;;;;;4936762;29;20227;-69
2021/09/07 02:17:07;;;;;;;19.45;13.35;;;16.00;99.90;;;;;;4934648;29;20026;-68
2021/09/07 02:19:33;;;;;;;17.70;14.02;;;16.00;99.90;;;;;;4935955;29;20024;-68
2021/09/07 02:21:58;;;;;;;16.33;12.95;;;16.10;99.90;;;;;;4936236;29;20495;-68
2021/09/07 02:24:24;;;;;;;16.80;13.98;;;16.20;99.90;;;;;;4936761;29;20451;-69
2021/09/07 02:26:49;;;;;;;16.15;13.15;;;16.20;99.90;;;;;;4936465;29;20489;-68
2021/09/07 02:29:15;;;;;;;17.58;13.23;;;16.20;99.90;;;;;;4935896;29;20400;-69
2021/09/07 02:31:40;;;;;;;16.17;13.18;;;16.20;99.90;;;;;;4936173;29;20389;-68
2021/09/07 02:34:06;;;;;;;17.60;14.00;;;16.20;99.90;;;;;;4935187;29;20027;-69
2021/09/07 02:36:31;;;;;;;17.23;14.50;;;16.20;99.90;;;;;;4936184;29;20464;-69
2021/09/07 02:38:57;;;;;;;16.77;13.90;;;16.20;99.90;;;;;;4936172;29;20075;-69
2021/09/07 02:41:23;;;;;;;15.50;13.25;;;16.20;99.90;;;;;;4936901;29;20028;-69
2021/09/07 02:43:48;;;;;;;15.82;13.90;;;16.20;99.90;;;;;;4934317;29;20074;-69
2021/09/07 02:46:14;;;;;;;15.30;13.25;;;16.20;99.90;;;;;;4936167;29;20078;-71
2021/09/07 02:48:39;;;;;;;18.42;14.05;;;16.20;99.90;;;;;;4936509;29;20373;-69
2021/09/07 02:51:05;;;;;;;17.65;14.13;;;16.20;99.90;;;;;;4935418;29;20035;-72
2021/09/07 02:53:30;;;;;;;17.63;14.27;;;16.20;99.90;;;;;;4936475;29;20484;-69
2021/09/07 02:55:56;;;;;;;18.88;13.45;;;16.20;99.90;;;;;;4935761;29;20036;-70
2021/09/07 02:58:21;;;;;;;15.73;13.38;;;16.20;99.90;;;;;;4935590;29;20024;-69
2021/09/07 03:00:47;;;;;;;17.50;14.27;;;16.20;99.90;;;;;;4935818;29;20020;-68
2021/09/07 03:03:12;;;;;;;17.70;14.88;;;16.20;99.90;;;;;;4935887;29;20110;-69
2021/09/07 03:05:38;;;;;;;17.20;14.18;;;16.20;99.90;;;;;;4935613;29;20051;-69
2021/09/07 03:08:04;;;;;;;19.50;15.27;;;16.30;99.90;;;;;;4935693;29;20099;-68
2021/09/07 03:10:30;;;;;;;17.95;14.20;;;16.30;99.90;;;;;;4934596;29;20032;-68
2021/09/07 03:12:55;;;;;;;19.17;14.07;;;16.30;99.90;;;;;;4935340;29;20024;-69
2021/09/07 03:15:24;;;;;;;19.98;15.13;;;16.30;99.90;;;;;;4935727;29;20039;-69
2021/09/07 03:17:50;;;;;;;17.75;14.13;;;16.20;99.90;;;;;;4935715;29;20034;-70
2021/09/07 03:20:16;;;;;;;20.70;16.02;;;16.20;99.90;;;;;;4935060;29;20031;-69
2021/09/07 03:22:41;;;;;;;18.48;14.90;;;16.20;99.90;;;;;;4935591;29;20066;-69
2021/09/07 03:25:07;;;;;;;18.90;14.60;;;16.20;99.90;;;;;;4935528;29;20104;-69
2021/09/07 03:27:33;;;;;;;17.65;15.07;;;16.20;99.90;;;;;;4934952;29;20039;-70
2021/09/07 03:29:58;;;;;;;19.45;15.20;;;16.20;99.90;;;;;;4935194;29;20036;-69
2021/09/07 03:32:25;;;;;;;17.30;14.65;;;16.20;99.90;;;;;;4934834;29;20046;-70
2021/09/07 03:34:51;;;;;;;18.10;14.27;;;16.20;99.90;;;;;;4934214;29;20380;-69
2021/09/07 03:37:16;;;;;;;21.38;15.13;;;16.20;99.90;;;;;;4935353;29;20024;-69
2021/09/07 03:39:42;;;;;;;19.20;15.80;;;16.20;99.90;;;;;;4934785;29;20035;-69
2021/09/07 03:42:08;;;;;;;21.23;16.42;;;16.20;99.90;;;;;;4933991;29;20106;-69
2021/09/07 03:44:33;;;;;;;17.75;14.40;;;16.10;99.90;;;;;;4935473;29;20164;-69
2021/09/07 03:46:59;;;;;;;19.63;15.70;;;16.10;99.90;;;;;;4934130;29;20023;-69
2021/09/07 03:49:24;;;;;;;21.33;16.88;;;16.10;99.90;;;;;;4935401;29;20040;-69
2021/09/07 03:51:50;;;;;;;20.48;15.15;;;16.00;99.90;;;;;;4934386;29;20039;-69
2021/09/07 03:54:15;;;;;;;19.77;15.65;;;16.00;99.90;;;;;;4933339;29;20031;-70
2021/09/07 03:56:41;;;;;;;21.02;16.15;;;15.90;99.90;;;;;;4934929;29;20547;-69
2021/09/07 03:59:06;;;;;;;21.30;16.17;;;15.90;99.90;;;;;;4933842;29;20020;-71
2021/09/07 04:01:32;;;;;;;18.15;15.70;;;15.80;99.90;;;;;;4934763;29;20485;-70
2021/09/07 04:03:57;;;;;;;18.27;14.68;;;15.70;99.90;;;;;;4934765;29;20031;-69
2021/09/07 04:06:23;;;;;;;20.75;16.15;;;15.60;99.90;;;;;;4934876;29;20075;-73
2021/09/07 04:08:48;;;;;;;21.15;16.75;;;15.60;99.90;;;;;;4932862;29;20024;-69
2021/09/07 04:11:14;;;;;;;20.23;15.90;;;15.50;99.90;;;;;;4934922;29;20035;-68
2021/09/07 04:13:40;;;;;;;19.67;16.13;;;15.40;99.90;;;;;;4933801;29;20031;-68
2021/09/07 04:16:05;;;;;;;24.77;17.15;;;15.40;99.90;;;;;;4932883;29;20046;-69
2021/09/07 04:18:31;;;;;;;19.33;16.58;;;15.30;99.90;;;;;;4934985;29;20477;-68
2021/09/07 04:20:57;;;;;;;23.77;17.17;;;15.20;99.90;;;;;;4934644;29;20094;-68
2021/09/07 04:23:22;;;;;;;22.70;17.85;;;15.10;99.90;;;;;;4932888;29;20028;-69
2021/09/07 04:25:48;;;;;;;24.23;17.20;;;15.10;99.90;;;;;;4934493;29;20120;-68
2021/09/07 04:28:15;;;;;;;23.23;17.20;;;15.00;99.90;;;;;;4934777;29;20082;-69
2021/09/07 04:30:41;;;;;;;19.95;15.80;;;15.00;99.90;;;;;;4933794;29;20062;-68
2021/09/07 04:33:06;;;;;;;20.83;17.25;;;15.00;99.90;;;;;;4934477;29;20465;-70
2021/09/07 04:35:32;;;;;;;21.60;17.25;;;14.90;99.90;;;;;;4934721;29;20034;-70
2021/09/07 04:37:57;;;;;;;21.27;17.27;;;14.90;99.90;;;;;;4932425;29;20030;-70
2021/09/07 04:40:23;;;;;;;21.08;17.40;;;14.80;99.90;;;;;;4934847;29;20031;-69
2021/09/07 04:42:49;;;;;;;19.33;15.75;;;14.80;99.90;;;;;;4933882;29;20384;-69
2021/09/07 04:45:14;;;;;;;20.52;17.25;;;14.70;99.90;;;;;;4933447;29;20495;-71
2021/09/07 04:47:40;;;;;;;23.10;16.75;;;14.70;99.90;;;;;;4933729;29;20068;-69
2021/09/07 04:50:06;;;;;;;19.33;16.00;;;14.70;99.90;;;;;;4932541;29;20028;-70
2021/09/07 04:52:32;;;;;;;22.88;17.02;;;14.70;99.90;;;;;;4934781;29;20024;-71
2021/09/07 04:54:57;;;;;;;20.33;16.33;;;14.70;99.90;;;;;;4934348;29;20480;-69
2021/09/07 04:57:23;;;;;;;25.52;17.00;;;14.60;99.90;;;;;;4933932;29;20028;-69
2021/09/07 04:59:48;;;;;;;22.35;17.42;;;14.60;99.90;;;;;;4934272;29;20483;-72
2021/09/07 05:02:14;;;;;;;23.08;17.70;;;14.60;99.90;;;;;;4934529;29;20024;-69
2021/09/07 05:04:39;;;;;;;24.25;18.63;;;14.60;99.90;;;;;;4934487;29;20024;-69
2021/09/07 05:07:05;;;;;;;21.45;16.50;;;14.60;99.90;;;;;;4937831;29;20499;-72
2021/09/07 05:09:30;;;;;;;22.00;17.88;;;14.60;99.90;;;;;;4938321;29;20040;-75
2021/09/07 05:11:56;;;;;;;21.88;18.00;;;14.60;99.90;;;;;;4938097;29;20020;-88
2021/09/07 05:14:22;;;;;;;21.73;17.52;;;14.60;99.90;;;;;;4938839;29;20032;-70
2021/09/07 05:16:47;;;;;;;23.92;19.10;;;14.70;99.90;;;;;;4938757;29;20102;-69
2021/09/07 05:19:15;;;;;;;24.10;18.88;;;14.70;99.90;;;;;;4942871;29;20042;-69
2021/09/07 05:21:41;;;;;;;23.85;18.35;;;14.70;99.90;;;;;;4948064;28;20527;-69
2021/09/07 05:24:07;;;;;;;23.67;18.42;;;14.80;99.90;;;;;;4952375;29;20475;-71
2021/09/07 05:26:32;;;;;;;23.55;18.85;;;14.90;99.90;;;;;;4955254;29;20046;-70
2021/09/07 05:28:58;;;;;;;26.90;19.50;;;14.80;99.90;;;;;;4953460;28;20369;-73
2021/09/07 05:31:23;;;;;;;24.63;19.50;;;14.80;99.90;;;;;;4952767;29;20027;-72
2021/09/07 05:33:49;;;;;;;26.42;19.70;;;14.80;99.90;;;;;;4953216;29;20045;-73
2021/09/07 05:36:16;;;;;;;23.92;18.63;;;14.80;99.90;;;;;;4955412;29;20530;-72
2021/09/07 05:38:42;;;;;;;21.13;17.63;;;14.80;99.90;;;;;;4954421;29;20078;-76
2021/09/07 05:41:08;;;;;;;23.27;18.45;;;14.80;99.90;;;;;;4953141;29;20053;-74
2021/09/07 05:43:33;;;;;;;23.95;18.77;;;14.80;99.90;;;;;;4946790;29;20071;-73
2021/09/07 05:45:59;;;;;;;25.95;19.90;;;14.80;99.90;;;;;;4941425;29;20023;-73
2021/09/07 05:48:25;;;;;;;24.33;19.17;;;14.80;99.90;;;;;;4943594;29;20031;-74
2021/09/07 05:50:51;;;;;;;25.38;19.52;;;14.80;99.90;;;;;;4947215;29;20095;-72
2021/09/07 05:53:16;;;;;;;27.85;19.77;;;14.90;99.90;;;;;;4935268;29;20385;-73
2021/09/07 05:55:42;;;;;;;23.15;18.08;;;14.90;99.90;;;;;;4946872;29;20027;-74
2021/09/07 05:58:07;;;;;;;24.77;18.63;;;14.90;99.90;;;;;;4954893;29;20019;-71
2021/09/07 06:00:33;;;;;;;23.85;18.10;;;14.90;99.90;;;;;;4953530;28;20023;-72
2021/09/07 06:03:02;;;;;;;24.20;20.00;;;14.90;99.90;;;;;;4936739;29;20024;-74
2021/09/07 06:05:28;;;;;;;23.60;18.75;;;15.00;99.90;;;;;;4947127;28;20067;-83
2021/09/07 06:07:54;;;;;;;26.08;20.83;;;15.00;99.90;;;;;;4935287;29;20457;-72
2021/09/07 06:10:19;;;;;;;27.13;20.90;;;15.00;99.90;;;;;;4967541;28;20078;-72
2021/09/07 06:12:45;;;;;;;24.30;20.52;;;15.10;99.90;;;;;;4955129;28;20039;-74
2021/09/07 06:15:10;;;;;;;24.65;20.15;;;15.10;99.90;;;;;;4954317;28;20059;-75
2021/09/07 06:17:36;;;;;;;27.77;20.33;;;15.20;99.90;;;;;;4953679;29;20077;-73
2021/09/07 06:20:02;;;;;;;24.80;20.23;;;15.30;99.90;;;;;;4942323;29;20031;-79
2021/09/07 06:22:28;;;;;;;26.45;20.67;;;15.50;99.90;;;;;;4940985;29;20063;-78
2021/09/07 06:24:55;;;;;;;29.10;22.15;;;15.70;99.90;;;;;;4934932;29;20417;-72
2021/09/07 06:27:20;;;;;;;25.42;19.10;;;15.90;99.90;;;;;;4935790;29;20039;-78
2021/09/07 06:29:46;;;;;;;27.83;20.35;;;16.20;99.90;;;;;;4935878;29;20036;-73
2021/09/07 06:32:13;;;;;;;23.25;19.30;;;16.40;99.90;;;;;;4937690;29;20031;-74
2021/09/07 06:34:39;;;;;;;25.08;20.17;;;16.50;99.90;;;;;;4937814;29;20024;-76
2021/09/07 14:45:59;;;;;;;8.05;7.28;;;24.80;97.10;;;;;;5440532;23;20056;-75
2021/09/07 14:48:24;;;;;;;8.38;7.57;;;24.80;96.90;;;;;;4914345;29;20035;-78
2021/09/07 14:50:50;;;;;;;10.52;7.10;;;24.90;96.90;;;;;;4914352;29;20040;-70
2021/09/07 14:53:15;;;;;;;11.25;8.35;;;24.90;96.90;;;;;;4913459;29;20067;-74
2021/09/07 14:55:41;;;;;;;8.98;7.70;;;25.00;97.10;;;;;;4915243;29;20035;-74
2021/09/07 14:58:08;;;;;;;9.15;7.40;;;25.10;97.20;;;;;;4912384;29;20103;-72
2021/09/07 15:00:37;;;;;;;7.45;6.70;;;25.10;97.30;;;;;;4933812;29;20039;-73
2021/09/07 15:03:05;;;;;;;7.43;6.65;;;25.10;97.20;;;;;;4933119;29;20063;-71
2021/09/07 15:05:31;;;;;;;9.20;7.20;;;25.10;97.10;;;;;;4918262;29;20392;-71
2021/09/07 15:07:57;;;;;;;8.82;7.10;;;25.10;96.40;;;;;;4914491;29;20020;-72
2021/09/07 15:10:22;;;;;;;7.35;6.63;;;25.00;96.10;;;;;;4909390;29;20095;-68
2021/09/07 15:12:48;;;;;;;9.85;7.72;;;25.00;96.50;;;;;;4916426;29;20051;-69
2021/09/07 15:15:13;;;;;;;8.88;7.22;;;24.90;96.40;;;;;;4916144;29;20488;-71
2021/09/07 15:17:39;;;;;;;9.35;8.40;;;24.90;96.30;;;;;;4916538;29;20577;-69
2021/09/07 15:20:06;;;;;;;8.98;7.68;;;24.90;96.80;;;;;;4916358;29;20032;-69
2021/09/07 15:22:32;;;;;;;9.45;7.82;;;24.90;97.20;;;;;;4910051;29;20389;-67
2021/09/07 15:24:57;;;;;;;7.50;6.80;;;24.90;97.10;;;;;;4917205;29;20028;-68
2021/09/07 15:27:23;;;;;;;7.90;6.97;;;24.90;97.50;;;;;;4935120;29;20035;-70
2021/09/07 15:29:49;;;;;;;6.75;6.05;;;24.90;97.00;;;;;;4916930;29;20035;-69
2021/09/07 15:32:14;;;;;;;7.25;6.53;;;24.90;96.90;;;;;;4909540;29;20025;-68
2021/09/07 15:34:40;;;;;;;10.45;7.35;;;24.80;97.30;;;;;;4897380;29;20113;-67
2021/09/07 15:37:06;;;;;;;9.85;6.22;;;24.70;97.70;;;;;;4911387;29;20044;-68
2021/09/07 15:39:31;;;;;;;9.90;6.68;;;24.70;97.40;;;;;;4913095;29;20119;-67
2021/09/07 15:41:58;;;;;;;6.68;5.97;;;24.70;97.60;;;;;;4894901;29;20722;-67
2021/09/07 15:44:25;;;;;;;7.13;6.30;;;24.60;97.60;;;;;;4892978;29;20029;-68
2021/09/07 15:46:51;;;;;;;7.35;6.53;;;24.60;97.20;;;;;;4892363;29;20053;-68
2021/09/07 15:49:16;;;;;;;6.55;5.95;;;24.70;97.30;;;;;;4898532;29;20381;-69
2021/09/07 15:51:42;;;;;;;9.98;7.10;;;24.60;97.50;;;;;;4912643;29;20028;-69
2021/09/07 15:54:08;;;;;;;8.68;7.13;;;24.60;97.10;;;;;;4912155;29;20032;-72
2021/09/07 15:56:33;;;;;;;7.50;6.50;;;24.60;97.30;;;;;;4911906;29;20056;-70
2021/09/07 15:58:59;;;;;;;7.30;6.60;;;24.60;97.20;;;;;;4910644;29;20503;-69
2021/09/07 16:01:27;;;;;;;9.90;7.25;;;24.50;97.10;;;;;;4911296;29;20110;-70
2021/09/07 16:03:53;;;;;;;11.07;8.82;;;24.50;97.00;;;;;;4909883;29;20024;-68
2021/09/07 16:06:18;;;;;;;9.40;8.40;;;24.50;97.20;;;;;;4912034;29;20023;-71
2021/09/07 16:08:44;;;;;;;10.68;9.63;;;24.40;97.60;;;;;;4911178;29;20388;-70
2021/09/07 16:11:10;;;;;;;10.13;8.38;;;24.40;98.00;;;;;;4911519;29;20036;-70
2021/09/07 16:13:35;;;;;;;9.13;7.63;;;24.30;97.30;;;;;;4910301;29;20068;-70
2021/09/07 16:16:01;;;;;;;8.38;7.22;;;24.30;97.50;;;;;;4903093;29;20057;-71
2021/09/07 16:18:27;;;;;;;12.05;7.93;;;24.30;97.30;;;;;;4901888;29;20071;-71
2021/09/07 16:20:52;;;;;;;9.70;6.97;;;24.20;96.90;;;;;;4902745;29;20040;-70
2021/09/07 16:23:18;;;;;;;7.55;6.75;;;24.20;96.70;;;;;;4909654;29;20040;-69
2021/09/07 16:25:46;;;;;;;8.45;6.22;;;24.10;97.20;;;;;;4908410;29;20086;-69
2021/09/07 16:28:12;;;;;;;7.03;6.32;;;24.10;97.10;;;;;;4900615;29;20043;-70
2021/09/07 16:30:38;;;;;;;10.15;6.88;;;24.00;97.10;;;;;;4893107;29;20053;-70
2021/09/07 16:33:04;;;;;;;7.00;6.22;;;24.00;97.40;;;;;;4892523;29;20040;-69
2021/09/07 16:35:31;;;;;;;10.27;6.70;;;23.90;98.10;;;;;;4893268;29;20044;-70
2021/09/07 16:37:58;;;;;;;6.97;6.25;;;23.90;98.70;;;;;;4891603;29;20020;-69
2021/09/07 16:40:24;;;;;;;7.20;6.28;;;23.80;99.10;;;;;;4895398;29;20451;-69
2021/09/07 16:42:50;;;;;;;7.68;6.95;;;23.80;98.80;;;;;;4907012;29;20029;-70
2021/09/07 16:45:16;;;;;;;8.30;6.78;;;23.80;97.50;;;;;;4892439;29;20134;-69
2021/09/07 16:47:42;;;;;;;6.82;6.20;;;23.80;97.90;;;;;;4893154;29;20028;-69
2021/09/07 16:50:08;;;;;;;8.90;6.80;;;23.90;98.10;;;;;;4909294;29;20052;-69
2021/09/07 16:52:38;;;;;;;6.85;6.15;;;23.90;98.50;;;;;;4909430;29;20043;-70
2021/09/07 16:55:25;;;;;;;7.22;6.00;;;23.90;98.30;;;;;;4910453;29;20123;-69
2021/09/07 16:57:50;;;;;;;9.07;6.13;;;23.80;98.90;;;;;;4911795;29;20107;-69
2021/09/07 17:00:16;;;;;;;8.82;6.55;;;23.80;99.10;;;;;;4898674;29;20107;-69
2021/09/07 17:02:41;;;;;;;6.72;6.03;;;23.70;99.20;;;;;;4895484;29;20088;-68
2021/09/07 17:05:07;;;;;;;8.30;6.10;;;23.70;99.30;;;;;;4897291;29;20703;-70
2021/09/07 17:07:35;;;;;;;7.75;6.93;;;23.60;99.50;;;;;;4894787;29;20381;-72
2021/09/07 17:10:02;;;;;;;7.07;6.22;;;23.40;99.40;;;;;;4899901;29;20627;-72
2021/09/07 17:12:30;;;;;;;10.55;6.57;;;23.30;99.60;;;;;;4919559;29;20396;-72
2021/09/07 17:14:57;;;;;;;8.60;5.70;;;23.10;99.70;;;;;;4913292;29;20033;-72
2021/09/07 17:17:22;;;;;;;6.75;6.05;;;23.00;99.90;;;;;;4908949;29;20028;-75
2021/09/07 17:19:48;;;;;;;9.05;6.45;;;22.80;99.40;;;;;;4896227;29;20032;-72
2021/09/07 17:22:14;;;;;;;7.93;6.60;;;22.70;99.80;;;;;;4895918;29;20060;-70
2021/09/07 17:24:39;;;;;;;6.15;5.55;;;22.60;99.90;;;;;;4902470;29;20035;-70
2021/09/07 17:27:05;;;;;;;9.70;6.60;;;22.50;99.90;;;;;;4898336;29;20490;-70
2021/09/07 17:29:33;;;;;;;8.13;7.22;;;22.40;99.90;;;;;;4908945;29;20119;-70
2021/09/07 17:32:19;;;;;;;9.35;7.22;;;22.20;99.90;;;;;;4914674;29;20069;-68
2021/09/07 17:42:28;;;;;;;7.63;6.85;;;21.70;99.90;;;;;;4896542;29;20085;-70
2021/09/07 17:44:54;;;;;;;7.85;6.78;;;21.60;99.90;;;;;;4894669;29;20025;-75
2021/09/07 17:47:19;;;;;;;7.95;7.15;;;21.50;99.90;;;;;;4896408;29;20039;-70
2021/09/07 17:49:47;;;;;;;8.05;6.75;;;21.40;99.90;;;;;;4895112;29;20413;-71
2021/09/07 17:52:13;;;;;;;8.23;7.20;;;21.30;99.90;;;;;;4895466;29;20037;-71
2021/09/07 17:54:38;;;;;;;9.45;7.30;;;21.10;99.90;;;;;;4897869;29;20032;-70
2021/09/07 17:57:04;;;;;;;9.50;7.53;;;21.00;99.90;;;;;;4902969;29;20028;-70
2021/09/07 17:59:30;;;;;;;8.07;7.20;;;20.90;99.90;;;;;;4896042;29;20032;-70
2021/09/07 18:01:55;;;;;;;10.93;8.30;;;20.80;99.90;;;;;;4906494;29;20469;-70
2021/09/07 18:04:21;;;;;;;7.78;6.97;;;20.70;99.90;;;;;;4910261;29;20117;-70
2021/09/07 18:06:48;;;;;;;9.45;7.03;;;20.60;99.90;;;;;;4912979;29;20024;-69
2021/09/07 18:09:15;;;;;;;9.35;7.50;;;20.50;99.90;;;;;;4912884;29;20651;-70
2021/09/07 18:11:41;;;;;;;10.30;7.95;;;20.40;99.90;;;;;;4912070;29;20032;-69
2021/09/07 18:14:07;;;;;;;9.13;7.47;;;20.30;99.90;;;;;;4914648;29;20711;-70
2021/09/07 18:16:33;;;;;;;11.15;7.55;;;20.20;99.90;;;;;;4914217;29;20044;-70
2021/09/07 18:19:01;;;;;;;9.35;7.45;;;20.10;99.90;;;;;;4900157;29;20473;-70
2021/09/07 18:21:26;;;;;;;8.70;7.63;;;20.10;99.90;;;;;;4914075;29;20020;-72
2021/09/07 18:23:52;;;;;;;8.63;7.72;;;20.00;99.90;;;;;;4894468;29;20088;-77
2021/09/07 18:26:18;;;;;;;8.82;7.32;;;19.90;99.90;;;;;;4893878;29;20036;-70
2021/09/07 18:28:43;;;;;;;12.23;8.60;;;19.80;99.90;;;;;;4900015;29;20025;-70
2021/09/07 18:31:09;;;;;;;12.48;9.07;;;19.70;99.90;;;;;;4913514;29;20500;-71
2021/09/07 18:33:34;;;;;;;11.43;9.32;;;19.60;99.90;;;;;;4911137;29;20405;-70
2021/09/07 18:36:00;;;;;;;13.82;9.00;;;19.60;99.90;;;;;;4899808;29;20424;-70
2021/09/07 18:38:25;;;;;;;9.65;8.43;;;19.50;99.90;;;;;;4905074;29;20035;-70
2021/09/07 18:40:51;;;;;;;10.35;8.85;;;19.40;99.90;;;;;;4901204;29;20036;-70
2021/09/07 18:43:17;;;;;;;10.73;8.80;;;19.40;99.90;;;;;;4913856;29;20107;-70
2021/09/07 18:45:43;;;;;;;11.95;8.63;;;19.30;99.90;;;;;;4903831;29;20190;-69
2021/09/07 18:48:09;;;;;;;10.73;8.20;;;19.20;99.90;;;;;;4897723;29;20556;-70
2021/09/07 18:50:35;;;;;;;11.18;8.90;;;19.10;99.90;;;;;;4895287;29;20132;-70
2021/09/07 18:53:02;;;;;;;10.95;8.45;;;19.10;99.90;;;;;;4899378;29;20032;-70
2021/09/07 18:55:31;;;;;;;13.95;8.95;;;19.00;99.90;;;;;;4913876;29;20107;-70
2021/09/07 18:57:57;;;;;;;10.30;8.70;;;19.00;99.90;;;;;;4898179;29;20025;-70
2021/09/07 19:00:23;;;;;;;11.23;8.73;;;18.90;99.90;;;;;;4894279;29;20080;-70
2021/09/07 19:02:49;;;;;;;10.05;8.63;;;18.90;99.90;;;;;;4895716;29;20066;-71
2021/09/07 19:05:14;;;;;;;13.13;9.30;;;18.80;99.90;;;;;;4894429;29;20052;-71
2021/09/07 19:07:40;;;;;;;12.20;10.27;;;18.80;99.90;;;;;;4896092;29;20040;-79
2021/09/07 19:10:06;;;;;;;11.57;9.75;;;18.70;99.90;;;;;;4902513;29;20060;-74
2021/09/07 19:12:32;;;;;;;10.70;9.57;;;18.70;99.90;;;;;;4897426;29;20062;-74
2021/09/07 19:14:59;;;;;;;14.10;10.02;;;18.70;99.90;;;;;;4897875;29;20457;-80
2021/09/07 19:17:25;;;;;;;15.15;9.80;;;18.60;99.90;;;;;;4902926;29;20551;-77
2021/09/07 19:19:51;;;;;;;12.07;9.10;;;18.50;99.90;;;;;;4913259;29;20040;-76
2021/09/07 19:22:17;;;;;;;11.55;10.18;;;18.50;99.90;;;;;;4895130;29;20032;-74
2021/09/07 19:24:43;;;;;;;11.52;10.00;;;18.40;99.90;;;;;;4895028;29;20040;-74
2021/09/07 19:27:10;;;;;;;13.20;10.70;;;18.40;99.90;;;;;;4893927;29;20059;-78
2021/09/07 19:29:36;;;;;;;12.65;10.55;;;18.30;99.90;;;;;;4894453;29;20080;-76
2021/09/07 19:32:02;;;;;;;12.18;10.55;;;18.30;99.90;;;;;;4893571;29;20032;-75
2021/09/07 19:34:28;;;;;;;13.68;11.38;;;18.30;99.90;;;;;;4893698;29;20851;-77
2021/09/07 19:36:55;;;;;;;13.52;11.57;;;18.20;99.90;;;;;;4892882;29;20124;-75
2021/09/07 19:39:22;;;;;;;12.88;11.45;;;18.20;99.90;;;;;;4905450;29;20056;-77
2021/09/07 19:41:51;;;;;;;13.05;11.05;;;18.10;99.90;;;;;;4897004;29;20066;-74
2021/09/07 19:44:18;;;;;;;14.68;10.57;;;18.10;99.90;;;;;;4907095;29;20040;-73
2021/09/07 19:46:45;;;;;;;13.65;10.70;;;18.00;99.90;;;;;;4904924;29;20047;-73
2021/09/07 19:49:11;;;;;;;13.18;11.20;;;18.00;99.90;;;;;;4900260;29;20043;-71
2021/09/07 19:51:36;;;;;;;16.73;11.25;;;18.00;99.90;;;;;;4912582;29;20032;-77
2021/09/07 19:54:02;;;;;;;14.18;10.75;;;17.90;99.90;;;;;;4910205;29;20492;-76
2021/09/07 19:56:27;;;;;;;21.50;14.57;;;17.90;99.90;;;;;;4906003;29;20036;-75
2021/09/07 19:58:53;;;;;;;17.27;13.55;;;17.80;99.90;;;;;;4910625;29;20515;-75
2021/09/07 20:01:19;;;;;;;16.42;12.75;;;17.80;99.90;;;;;;4904249;29;20103;-75
2021/09/07 20:03:45;;;;;;;18.13;12.52;;;17.80;99.90;;;;;;4892568;29;20025;-75
2021/09/07 20:06:11;;;;;;;12.52;10.15;;;17.70;99.90;;;;;;4891585;29;20496;-79
2021/09/07 20:08:36;;;;;;;13.60;11.07;;;17.70;99.90;;;;;;4891941;29;20124;-77
2021/09/07 20:11:02;;;;;;;13.57;11.18;;;17.70;99.90;;;;;;4895733;29;20449;-75
2021/09/07 20:13:28;;;;;;;16.20;12.77;;;17.60;99.90;;;;;;4909205;29;20040;-75
2021/09/07 20:15:53;;;;;;;17.25;13.45;;;17.60;99.90;;;;;;4911473;29;20432;-74
2021/09/07 20:18:19;;;;;;;17.98;12.75;;;17.60;99.90;;;;;;4908962;29;20028;-74
2021/09/07 20:20:44;;;;;;;13.82;11.82;;;17.50;99.90;;;;;;4891735;29;20025;-74
2021/09/07 20:23:10;;;;;;;14.77;12.32;;;17.50;99.90;;;;;;4892676;29;20032;-74
2021/09/07 20:25:38;;;;;;;14.85;12.05;;;17.40;99.90;;;;;;4892721;29;20088;-77
2021/09/07 20:28:04;;;;;;;14.95;12.38;;;17.40;99.90;;;;;;4890820;29;20033;-74
2021/09/07 20:30:30;;;;;;;12.50;10.85;;;17.40;99.90;;;;;;4892244;29;20044;-75
2021/09/07 20:32:56;;;;;;;13.45;11.43;;;17.30;99.90;;;;;;4892641;29;20100;-74
2021/09/07 20:35:22;;;;;;;13.40;10.93;;;17.30;99.90;;;;;;4897051;29;20341;-74
2021/09/07 20:37:48;;;;;;;13.32;11.52;;;17.20;99.90;;;;;;4897789;29;20039;-75
2021/09/07 20:40:14;;;;;;;12.27;10.25;;;17.20;99.90;;;;;;4897208;29;20032;-73
2021/09/07 20:42:41;;;;;;;12.98;11.43;;;17.20;99.90;;;;;;4898583;29;20021;-74